METAR Data
IDs: Format: Raw Decoded Include TAF

Data at: 1820 UTC 25 Mar 2019

K6R3 251815Z AUTO 28005KT 7SM BKN025 BKN032 BKN046 25/20 A3011 RMK AO2 T02490197
K6R3 251755Z AUTO 30005KT 7SM SCT022 BKN031 BKN035 26/20 A3012 RMK AO2 T02600199 10263 20191
K6R3 251735Z AUTO 27006KT 7SM BKN024 OVC031 25/20 A3013 RMK AO2 T02530199
K6R3 251715Z AUTO 26005KT 10SM OVC024 25/20 A3013 RMK AO2 LTG DSNT E T02460196
K6R3 251655Z AUTO 25005KT 7SM BKN021 BKN038 25/20 A3013 RMK AO2 T02460200
K6R3 251635Z AUTO 27004KT 7SM SCT016 SCT025 SCT060 25/20 A3013 RMK AO2 T02470203
K6R3 251615Z AUTO 26003KT 7SM OVC016 24/20 A3014 RMK AO2 T02350202
K6R3 251555Z AUTO 30003KT 7SM OVC013 23/20 A3014 RMK AO2 T02290203
K6R3 251535Z AUTO 26005KT 7SM BKN013 OVC070 22/20 A3013 RMK AO2 T02210200
K6R3 251515Z AUTO 00000KT 7SM BKN013 BKN024 OVC060 22/20 A3013 RMK AO2 T02170199
K6R3 251455Z AUTO 28005KT 7SM BKN013 OVC050 22/20 A3013 RMK AO2 T02170198
K6R3 251435Z AUTO 28005KT 7SM SCT013 BKN050 22/20 A3012 RMK AO2 T02220198
K6R3 251415Z AUTO 26006KT 7SM SCT060 22/20 A3011 RMK AO2 T02200204
K6R3 251355Z AUTO 22005KT 7SM OVC060 21/21 A3010 RMK AO2 T02060205
K6R3 251335Z AUTO 20003KT 7SM OVC060 20/20 A3010 RMK AO2 T01980198
K6R3 251315Z AUTO 21004KT 5SM BR BKN021 OVC050 20/20 A3010 RMK AO2 T01950195
K6R3 251255Z AUTO 19004KT 5SM BR SCT016 OVC021 19/19 A3010 RMK AO2 T01910191
K6R3 251235Z AUTO 00000KT 7SM -DZ OVC018 19/19 A3010 RMK AO2 T01910191
K6R3 251215Z AUTO 00000KT 7SM OVC018 19/19 A3010 RMK AO2 T01940194
K6R3 251155Z AUTO 00000KT 7SM OVC018 20/19 A3008 RMK AO2 T01950194 10202 20190
K6R3 251135Z AUTO 00000KT 7SM OVC016 20/19 A3007 RMK AO2 T01970193
K6R3 251115Z AUTO 00000KT 7SM OVC014 20/19 A3007 RMK AO2 T01990193
K6R3 251055Z AUTO 00000KT 7SM OVC014 20/19 A3006 RMK AO2 T02000193
K6R3 251035Z AUTO 21005KT 7SM OVC014 20/19 A3005 RMK AO2 T02000194
K6R3 251015Z AUTO 20004KT 7SM OVC014 20/20 A3005 RMK AO2 T02000195
K6R3 250955Z AUTO 22003KT 7SM OVC012 20/20 A3005 RMK AO2 T02020195
K6R3 250935Z AUTO 00000KT 7SM OVC012 20/20 A3005 RMK AO2 T02020195
K6R3 250915Z AUTO 22004KT 7SM OVC012 20/20 A3005 RMK AO2 LTG DSNT N T02010196
K6R3 250855Z AUTO 22005G14KT 7SM OVC010 20/20 A3004 RMK AO2 T02010198
K6R3 250835Z AUTO 23004KT 7SM OVC008 20/20 A3004 RMK AO2 T01990198
K6R3 250815Z AUTO 21004KT 7SM OVC008 20/20 A3004 RMK AO2 T01960196
K6R3 250755Z AUTO 21005KT 7SM OVC010 20/20 A3005 RMK AO2 LTG DSNT N T01950195
K6R3 250735Z AUTO 20006KT 7SM OVC010 19/19 A3005 RMK AO2 T01920192
K6R3 250715Z AUTO 19005KT 7SM OVC012 19/19 A3006 RMK AO2 T01910191
K6R3 250655Z AUTO 19004KT 7SM SCT006 OVC014 19/19 A3007 RMK AO2 T01900190
K6R3 250635Z AUTO 19005KT 7SM SCT006 OVC014 19/19 A3008 RMK AO2 T01920192
K6R3 250615Z AUTO 19004KT 7SM SCT007 OVC012 19/19 A3009 RMK AO2 T01930193
K6R3 250555Z AUTO 19004KT 7SM SCT008 OVC012 19/19 A3009 RMK AO2 T01940194 10222 20192 402610120
K6R3 250535Z AUTO 19004KT 7SM OVC014 20/20 A3009 RMK AO2 T01950195
K6R3 250515Z AUTO 19004KT 7SM OVC014 20/20 A3009 RMK AO2 T01950195
K6R3 250455Z AUTO 19004KT 7SM SCT009 OVC014 20/20 A3009 RMK AO2 T01950195
K6R3 250435Z AUTO 17003KT 7SM OVC017 19/19 A3009 RMK AO2 T01940194
K6R3 250415Z AUTO 20003KT 7SM OVC015 20/20 A3009 RMK AO2 T01960195
K6R3 250355Z AUTO 18005KT 7SM OVC015 20/20 A3009 RMK AO2 T01950195
K6R3 250335Z AUTO 00000KT 7SM OVC013 20/19 A3009 RMK AO2 T01950193
K6R3 250315Z AUTO 00000KT 7SM OVC015 19/19 A3009 RMK AO2 T01930192
K6R3 250255Z AUTO 00000KT 7SM OVC017 19/19 A3007 RMK AO2 T01920191
K6R3 250235Z AUTO 17003KT 7SM SCT019 19/19 A3007 RMK AO2 T01920190
K6R3 250215Z AUTO 16003KT 7SM CLR 20/19 A3006 RMK AO2 T01950190
K6R3 250155Z AUTO 16005KT 7SM CLR 20/19 A3005 RMK AO2 T01980190
K6R3 250135Z AUTO 17006KT 10SM SCT016 20/19 A3005 RMK AO2 LTG DSNT NW T02010190
K6R3 250115Z AUTO 16007KT 7SM BKN016 21/19 A3004 RMK AO2 T02050190
K6R3 250055Z AUTO 16007KT 7SM SCT018 21/19 A3004 RMK AO2 T02070190
K6R3 250035Z AUTO 17006KT 7SM SCT018 SCT055 21/19 A3004 RMK AO2 T02110190
K6R3 250015Z AUTO 17006KT 7SM SCT031 SCT040 BKN055 22/19 A3005 RMK AO2 T02190190
K6R3 242355Z AUTO 17007KT 7SM SCT033 BKN039 OVC055 22/19 A3005 RMK AO2 T02220190 10261 20222
K6R3 242335Z AUTO 17010KT 10SM SCT033 BKN038 OVC055 23/19 A3005 RMK AO2 T02290191
K6R3 242315Z AUTO 18009KT 7SM SCT030 SCT038 BKN055 23/19 A3006 RMK AO2 T02320190
K6R3 242255Z AUTO 17007G14KT 7SM SCT026 BKN030 BKN055 24/19 A3005 RMK AO2 T02430192
K6R3 242235Z AUTO 17007G16KT 10SM SCT024 SCT029 24/19 A3005 RMK AO2 T02380190
K6R3 242215Z AUTO 17007KT 7SM BKN024 BKN032 OVC039 25/19 A3005 RMK AO2 T02530193
K6R3 242155Z AUTO 18010G18KT 10SM SCT026 BKN032 OVC044 25/19 A3006 RMK AO2 T02530190
K6R3 242135Z AUTO 17008KT 7SM SCT029 SCT036 BKN041 24/19 A3006 RMK AO2 T02410188
K6R3 242115Z AUTO 17009G14KT 7SM SCT027 SCT031 BKN041 24/19 A3007 RMK AO2 T02410188
K6R3 242055Z AUTO 19011G15KT 7SM SCT023 SCT031 BKN060 25/19 A3007 RMK AO2 T02520188
K6R3 242035Z AUTO 18009KT 7SM SCT023 BKN031 OVC060 25/19 A3007 RMK AO2 T02470186
K6R3 242015Z AUTO 17009G14KT 7SM BKN021 BKN031 OVC050 25/19 A3008 RMK AO2 T02450193
K6R3 241955Z AUTO 17008G16KT 7SM BKN023 BKN029 OVC041 25/19 A3009 RMK AO2 T02450191
K6R3 241935Z AUTO 18006KT 7SM SCT021 BKN033 OVC060 24/19 A3009 RMK AO2 T02410192
K6R3 241915Z AUTO 18010KT 7SM SCT019 BKN025 OVC060 25/19 A3010 RMK AO2 T02470194
K6R3 241855Z AUTO 17007KT 7SM BKN019 BKN024 OVC037 24/20 A3011 RMK AO2 T02420196
K6R3 241835Z AUTO 18005KT 7SM BKN019 OVC023 23/19 A3012 RMK AO2 T02290190
K6R3 241815Z AUTO 18008KT 7SM SCT019 BKN024 OVC049 23/19 A3013 RMK AO2 T02280190
K6R3 241755Z AUTO 19006G14KT 7SM BKN019 BKN027 OVC047 22/19 A3013 RMK AO2 T02240189 10230 20121
K6R3 241735Z AUTO 18007KT 7SM SCT019 SCT027 OVC045 23/19 A3013 RMK AO2 T02280192
K6R3 241715Z AUTO 18005KT 7SM SCT017 BKN031 OVC045 22/20 A3014 RMK AO2 T02220198
K6R3 241655Z AUTO 19007KT 7SM BKN018 BKN024 OVC030 22/19 A3015 RMK AO2 T02160191
K6R3 241635Z AUTO 19007KT 7SM SCT016 BKN033 OVC041 22/19 A3015 RMK AO2 T02200193
K6R3 241615Z AUTO 18006KT 7SM SCT014 BKN035 OVC040 21/19 A3015 RMK AO2 T02130191
K6R3 241555Z AUTO 18008KT 7SM BKN014 OVC023 21/19 A3016 RMK AO2 T02100189
K6R3 241535Z AUTO 20007KT 7SM BKN014 OVC026 21/19 A3015 RMK AO2 T02120187
K6R3 241515Z AUTO 19008KT 7SM BKN014 BKN026 OVC036 21/19 A3015 RMK AO2 T02110189
K6R3 241455Z AUTO 19008KT 7SM BKN009 BKN026 OVC036 21/19 A3015 RMK AO2 T02050188
K6R3 241435Z AUTO 19006KT 7SM BKN009 BKN038 20/19 A3014 RMK AO2 T01970187
K6R3 241415Z AUTO 19005KT 7SM SCT007 19/19 A3013 RMK AO2 T01860185
K6R3 241355Z AUTO 18005KT 5SM BR SCT003 17/17 A3013 RMK AO2 T01720172
K6R3 241335Z AUTO 17005KT 4SM BR SCT003 SCT045 16/16 A3012 RMK AO2 T01600160
K6R3 241315Z AUTO 00000KT 3SM BR SCT003 SCT014 BKN045 14/14 A3013 RMK AO2 T01360136
K6R3 241255Z AUTO 00000KT 5SM BR BKN003 BKN014 13/13 A3013 RMK AO2 T01250125
K6R3 241235Z AUTO 00000KT 5SM BR BKN003 BKN014 13/13 A3013 RMK AO2 T01250125
K6R3 241215Z AUTO 00000KT 5SM BR BKN003 BKN014 BKN021 12/12 A3013 RMK AO2 T01240124
K6R3 241155Z AUTO 00000KT 7SM SCT003 SCT014 12/12 A3012 RMK AO2 T01220122 10139 20120
K6R3 241135Z AUTO 00000KT 5SM BR CLR 12/12 A3012 RMK AO2 T01210121
K6R3 241115Z AUTO 00000KT 7SM SCT065 12/12 A3012 RMK AO2 T01210121
K6R3 241055Z AUTO 00000KT 7SM SCT065 12/12 A3011 RMK AO2 T01240124
K6R3 241035Z AUTO 00000KT 7SM CLR 12/12 A3011 RMK AO2 T01240124
K6R3 241015Z AUTO 00000KT 7SM CLR 12/12 A3011 RMK AO2 T01230123
K6R3 240955Z AUTO 00000KT 7SM CLR 13/13 A3011 RMK AO2 T01250125
K6R3 240935Z AUTO 00000KT 5SM BR CLR 13/13 A3011 RMK AO2 T01270127
K6R3 240915Z AUTO 00000KT 5SM BR CLR 13/13 A3011 RMK AO2 T01310131
K6R3 240855Z AUTO 00000KT 7SM SCT034 13/13 A3011 RMK AO2 T01330133
K6R3 240835Z AUTO 00000KT 7SM BKN034 14/14 A3012 RMK AO2 T01380138
K6R3 240815Z AUTO 00000KT 7SM BKN036 BKN070 13/13 A3012 RMK AO2 T01330133
K6R3 240755Z AUTO 00000KT 5SM BR BKN036 OVC070 13/13 A3013 RMK AO2 T01300130
K6R3 240735Z AUTO 00000KT 7SM BKN070 13/13 A3013 RMK AO2 T01270127
K6R3 240710Z AUTO 00000KT 5SM BR CLR 13/13 A3013 RMK AO2 T01260126
K6R3 240655Z AUTO 00000KT 5SM BR CLR 13/13 A3013 RMK AO2 T01250125
K6R3 240635Z AUTO 00000KT 7SM CLR 13/13 A3013 RMK AO2 T01300130